createdAt,value
2023-01-13T00:01:00.634Z,6.35
2023-01-13T00:03:28.530Z,5.25
2023-01-13T00:05:59.709Z,7.57
2023-01-13T00:08:27.599Z,5.70
2023-01-13T00:10:55.479Z,7.25
2023-01-13T00:13:26.738Z,5.95
2023-01-13T00:15:58.321Z,8.60
2023-01-13T00:18:26.317Z,8.98
2023-01-13T00:21:01.173Z,4.47
2023-01-13T00:23:29.611Z,5.95
2023-01-13T00:25:57.637Z,5.50
2023-01-13T00:28:25.520Z,5.03
2023-01-13T00:30:53.550Z,5.55
2023-01-13T00:33:21.755Z,5.82
2023-01-13T00:35:56.853Z,5.68
2023-01-13T00:38:26.281Z,5.50
2023-01-13T00:40:57.927Z,6.10
2023-01-13T00:43:25.279Z,5.32
2023-01-13T00:45:53.202Z,5.60
2023-01-13T00:48:21.433Z,6.18
2023-01-13T00:50:58.259Z,5.03
2023-01-13T00:53:27.820Z,5.75
2023-01-13T00:56:02.250Z,5.70
2023-01-13T00:58:31.618Z,5.57
2023-01-13T01:01:01.338Z,6.15
2023-01-13T01:03:29.328Z,5.72
2023-01-13T01:05:57.265Z,5.28
2023-01-13T01:08:25.262Z,5.47
2023-01-13T01:11:03.305Z,5.25
2023-01-13T01:13:31.184Z,7.40
2023-01-13T01:15:59.274Z,5.70
2023-01-13T01:18:27.182Z,4.95
2023-01-13T01:20:55.137Z,5.15
2023-01-13T01:23:23.027Z,4.57
2023-01-13T01:25:50.884Z,5.63
2023-01-13T01:28:20.666Z,5.18
2023-01-13T01:30:48.707Z,4.80
2023-01-13T01:33:16.845Z,5.05
2023-01-13T01:35:44.761Z,5.70
2023-01-13T01:38:12.656Z,4.90
2023-01-13T01:40:40.539Z,4.75
2023-01-13T01:43:31.597Z,4.93
2023-01-13T01:46:00.811Z,5.25
2023-01-13T01:48:28.896Z,3.70
2023-01-13T01:50:56.758Z,4.82
2023-01-13T01:53:25.460Z,5.75
2023-01-13T01:55:53.409Z,5.15
2023-01-13T01:58:22.179Z,4.60
2023-01-13T02:00:50.144Z,5.38
2023-01-13T02:03:19.445Z,4.30
2023-01-13T02:05:47.372Z,4.63
2023-01-13T02:08:15.267Z,6.45
2023-01-13T02:10:43.177Z,5.25
2023-01-13T02:13:11.763Z,5.30
2023-01-13T02:15:47.785Z,6.95
2023-01-13T02:18:27.848Z,6.00
2023-01-13T02:21:12.158Z,4.55
2023-01-13T02:24:33.638Z,4.03
2023-01-13T02:27:31.734Z,3.83
2023-01-13T02:30:25.930Z,4.93
2023-01-13T02:33:01.407Z,4.57
2023-01-13T02:35:31.154Z,5.28
2023-01-13T02:37:59.031Z,5.70
2023-01-13T02:40:28.437Z,6.93
2023-01-13T02:43:16.676Z,4.72
2023-01-13T02:45:49.283Z,4.53
2023-01-13T02:48:17.262Z,4.55
2023-01-13T02:50:47.561Z,4.85
2023-01-13T02:53:17.057Z,4.60
2023-01-13T02:55:47.322Z,3.95
2023-01-13T02:58:16.790Z,5.28
2023-01-13T03:00:46.098Z,4.85
2023-01-13T03:03:14.627Z,5.20
2023-01-13T03:05:42.944Z,4.47
2023-01-13T03:08:21.290Z,4.88
2023-01-13T03:10:55.597Z,5.30
2023-01-13T03:13:32.492Z,3.63
2023-01-13T03:16:06.952Z,4.75
2023-01-13T03:18:40.914Z,4.97
2023-01-13T03:21:09.995Z,5.22
2023-01-13T03:23:41.416Z,4.68
2023-01-13T03:26:11.113Z,4.20
2023-01-13T03:28:41.944Z,4.70
2023-01-13T03:31:13.614Z,4.35
2023-01-13T03:33:45.330Z,4.03
2023-01-13T03:36:13.914Z,4.40
2023-01-13T03:38:43.320Z,3.97
2023-01-13T03:41:13.053Z,4.68
2023-01-13T03:43:59.660Z,4.40
2023-01-13T03:46:30.684Z,4.28
2023-01-13T03:48:58.883Z,4.55
2023-01-13T03:51:27.460Z,4.03
2023-01-13T03:53:57.174Z,4.28
2023-01-13T03:56:26.757Z,4.55
2023-01-13T03:58:54.801Z,5.75
2023-01-13T04:01:24.115Z,4.20
2023-01-13T04:03:55.219Z,4.72
2023-01-13T04:06:26.335Z,4.15
2023-01-13T04:08:56.382Z,5.03
2023-01-13T04:11:27.852Z,4.05
2023-01-13T04:13:55.676Z,4.22
2023-01-13T04:16:23.505Z,4.85
2023-01-13T04:18:52.682Z,5.07
2023-01-13T04:21:20.538Z,3.90
2023-01-13T04:23:51.335Z,5.47
2023-01-13T04:26:19.639Z,5.05
2023-01-13T04:28:47.691Z,4.32
2023-01-13T04:31:15.620Z,3.65
2023-01-13T04:33:43.505Z,4.03
2023-01-13T04:36:12.711Z,4.95
2023-01-13T04:38:40.562Z,3.88
2023-01-13T04:41:08.398Z,4.05
2023-01-13T04:43:36.318Z,3.78
2023-01-13T04:46:04.207Z,4.63
2023-01-13T04:48:32.104Z,5.68
2023-01-13T04:50:59.978Z,3.85
2023-01-13T04:53:29.177Z,3.90
2023-01-13T04:55:57.066Z,4.60
2023-01-13T04:58:24.928Z,4.07
2023-01-13T05:00:53.070Z,6.53
2023-01-13T05:03:20.990Z,3.63
2023-01-13T05:05:52.371Z,4.13
2023-01-13T05:08:20.300Z,4.07
2023-01-13T05:10:49.493Z,4.90
2023-01-13T05:13:34.805Z,5.32
2023-01-13T05:16:20.584Z,4.32
2023-01-13T05:18:48.443Z,4.50
2023-01-13T05:21:30.231Z,5.38
2023-01-13T05:24:23.878Z,5.43
2023-01-13T05:26:53.120Z,3.53
2023-01-13T05:29:20.993Z,4.00
2023-01-13T05:31:48.815Z,3.65
2023-01-13T05:34:16.825Z,3.95
2023-01-13T05:36:44.693Z,4.75
2023-01-13T05:39:12.554Z,3.67
2023-01-13T05:41:57.908Z,3.72
2023-01-13T05:44:27.177Z,3.70
2023-01-13T05:46:55.147Z,3.47
2023-01-13T05:49:23.049Z,3.60
2023-01-13T05:51:50.922Z,3.78
2023-01-13T05:54:18.773Z,3.72
2023-01-13T05:56:46.676Z,4.18
2023-01-13T05:59:14.524Z,4.22
2023-01-13T06:01:43.719Z,4.75
2023-01-13T06:04:11.599Z,3.60
2023-01-13T06:06:39.725Z,5.50
2023-01-13T06:09:07.567Z,3.20
2023-01-13T06:11:35.431Z,4.25
2023-01-13T06:14:03.276Z,2.88
2023-01-13T06:16:31.161Z,3.33
2023-01-13T06:19:00.409Z,5.15
2023-01-13T06:21:28.263Z,4.00
2023-01-13T06:23:56.137Z,3.97
2023-01-13T06:26:24.007Z,3.58
2023-01-13T06:28:51.903Z,3.63
2023-01-13T06:31:19.826Z,3.60
2023-01-13T06:33:49.557Z,4.65
2023-01-13T06:36:22.160Z,5.32
2023-01-13T06:38:51.071Z,2.95
2023-01-13T06:41:39.017Z,3.22
2023-01-13T06:44:06.082Z,4.63
2023-01-13T06:46:34.667Z,6.43
2023-01-13T06:49:05.159Z,5.75
2023-01-13T06:51:35.816Z,6.05
2023-01-13T06:54:04.197Z,3.95
2023-01-13T06:56:32.113Z,6.20
2023-01-13T06:58:59.988Z,3.70
2023-01-13T07:01:27.958Z,4.78
2023-01-13T07:03:56.157Z,5.18
2023-01-13T07:06:24.039Z,7.70
2023-01-13T07:08:53.206Z,5.43
2023-01-13T07:11:21.062Z,8.27
2023-01-13T07:14:06.451Z,5.05
2023-01-13T07:16:34.349Z,3.58
2023-01-13T07:19:02.347Z,5.97
2023-01-13T07:21:30.246Z,9.85
2023-01-13T07:23:59.461Z,6.22
2023-01-13T07:26:27.425Z,5.53
2023-01-13T07:28:55.264Z,5.93
2023-01-13T07:31:23.176Z,4.15
2023-01-13T07:33:51.038Z,6.13
2023-01-13T07:36:18.966Z,3.75
2023-01-13T07:38:46.818Z,5.10
2023-01-13T07:41:33.437Z,4.95
2023-01-13T07:44:04.812Z,6.47
2023-01-13T07:46:32.734Z,4.07
2023-01-13T07:49:00.704Z,3.95
2023-01-13T07:51:28.555Z,4.38
2023-01-13T07:53:56.400Z,13.77
2023-01-13T07:56:25.618Z,17.15
2023-01-13T07:58:53.770Z,24.98
2023-01-13T08:01:21.797Z,28.98
2023-01-13T08:03:49.791Z,39.85
2023-01-13T08:06:17.769Z,37.63
2023-01-13T08:08:45.676Z,70.47
2023-01-13T08:11:13.614Z,47.15
2023-01-13T08:13:42.854Z,67.57
2023-01-13T08:16:12.202Z,70.07
2023-01-13T08:18:40.311Z,66.85
2023-01-13T08:21:09.081Z,78.93
2023-01-13T08:23:37.047Z,94.80
2023-01-13T08:26:05.866Z,88.20
2023-01-13T08:28:33.803Z,104.18
2023-01-13T08:31:03.598Z,82.03
2023-01-13T08:33:31.581Z,72.53
2023-01-13T08:35:59.465Z,76.10
2023-01-13T08:38:27.325Z,85.15
2023-01-13T08:40:55.307Z,71.30
2023-01-13T08:43:23.220Z,71.28
2023-01-13T08:45:57.841Z,59.15
2023-01-13T08:48:28.558Z,190.18
2023-01-13T08:51:02.694Z,212.00
2023-01-13T08:53:30.602Z,137.75
2023-01-13T08:55:58.436Z,176.05
2023-01-13T08:58:26.369Z,149.73
2023-01-13T09:00:54.334Z,114.97
2023-01-13T09:03:22.415Z,116.70
2023-01-13T09:05:51.731Z,103.55
2023-01-13T09:08:20.314Z,109.45
2023-01-13T09:10:48.247Z,97.25
2023-01-13T09:13:15.532Z,78.40
2023-01-13T09:15:44.876Z,88.13
2023-01-13T09:18:12.912Z,81.88
2023-01-13T09:20:40.856Z,86.90
2023-01-13T09:23:10.890Z,84.10
2023-01-13T09:25:39.482Z,66.15
2023-01-13T09:28:08.406Z,66.57
2023-01-13T09:30:37.731Z,69.75
2023-01-13T09:33:23.262Z,62.65
2023-01-13T09:35:51.149Z,64.35
2023-01-13T09:38:20.461Z,59.55
2023-01-13T09:40:49.150Z,64.68
2023-01-13T09:43:37.262Z,53.00
2023-01-13T09:46:06.648Z,61.45
2023-01-13T09:48:51.676Z,51.58
2023-01-13T09:51:21.198Z,42.75
2023-01-13T09:53:52.316Z,55.15
2023-01-13T09:56:20.238Z,47.40
2023-01-13T09:58:48.131Z,52.03
2023-01-13T10:01:20.137Z,42.15
2023-01-13T10:03:49.286Z,47.47
2023-01-13T10:06:18.765Z,43.13
2023-01-13T10:08:47.095Z,49.40
2023-01-13T10:11:35.296Z,46.28
2023-01-13T10:14:04.085Z,45.28
2023-01-13T10:16:41.128Z,34.92
2023-01-13T10:19:13.691Z,40.70
2023-01-13T10:22:04.193Z,42.00
2023-01-13T10:24:40.740Z,38.63
2023-01-13T10:27:13.628Z,34.92
2023-01-13T10:29:41.551Z,32.88
2023-01-13T10:32:10.314Z,33.22
2023-01-13T10:34:47.108Z,35.22
2023-01-13T10:37:21.172Z,41.00
2023-01-13T10:39:49.334Z,35.25
2023-01-13T10:42:19.882Z,30.40
2023-01-13T10:44:51.586Z,31.20
2023-01-13T10:47:24.456Z,33.92
2023-01-13T10:50:19.957Z,32.13
2023-01-13T10:52:58.084Z,25.70
2023-01-13T10:55:28.730Z,29.33
2023-01-13T10:57:57.937Z,26.55
2023-01-13T11:00:29.965Z,27.05
2023-01-13T11:03:15.233Z,23.75
2023-01-13T11:05:49.291Z,31.30
2023-01-13T11:08:18.253Z,25.40
2023-01-13T11:10:47.430Z,20.58
2023-01-13T11:13:18.053Z,25.30
2023-01-13T11:15:48.053Z,23.38
2023-01-13T11:18:19.482Z,28.20
2023-01-13T11:20:48.048Z,23.60
2023-01-13T11:23:18.546Z,22.25
2023-01-13T11:25:47.817Z,23.55
2023-01-13T11:28:36.930Z,20.90
2023-01-13T11:31:08.661Z,26.65
2023-01-13T11:33:42.058Z,25.05
2023-01-13T11:36:13.206Z,20.58
2023-01-13T11:38:45.990Z,19.70
2023-01-13T11:41:22.281Z,20.38
2023-01-13T11:43:54.152Z,21.95
2023-01-13T11:46:23.443Z,18.80
2023-01-13T11:48:52.860Z,19.35
2023-01-13T11:51:26.331Z,19.70
2023-01-13T11:54:14.388Z,19.52
2023-01-13T11:56:52.669Z,17.88
2023-01-13T11:59:47.900Z,15.98
2023-01-13T12:02:22.190Z,17.52
2023-01-13T12:04:53.696Z,19.02
2023-01-13T12:07:23.437Z,18.05
2023-01-13T12:10:03.205Z,16.02
2023-01-13T12:12:39.176Z,15.25
2023-01-13T12:15:37.329Z,17.23
2023-01-13T12:18:19.445Z,16.40
2023-01-13T12:20:52.690Z,13.63
2023-01-13T12:23:25.883Z,15.75
2023-01-13T12:25:55.289Z,17.42
2023-01-13T12:28:25.668Z,15.15
2023-01-13T12:30:56.192Z,14.18
2023-01-13T12:33:29.264Z,17.52
2023-01-13T12:36:00.410Z,16.30
2023-01-13T12:38:34.416Z,11.55
2023-01-13T12:41:07.624Z,15.07
2023-01-13T12:43:53.294Z,13.27
2023-01-13T12:46:56.879Z,17.08
2023-01-13T12:49:26.335Z,13.05
2023-01-13T12:52:12.605Z,15.93
2023-01-13T12:55:17.411Z,16.63
2023-01-13T12:58:15.286Z,13.73
2023-01-13T13:01:00.805Z,15.50
2023-01-13T13:03:36.725Z,14.50
2023-01-13T13:06:14.426Z,15.18
2023-01-13T13:08:48.006Z,14.40
2023-01-13T13:11:42.094Z,13.50
2023-01-13T13:14:12.520Z,12.50
2023-01-13T13:16:48.683Z,12.30
2023-01-13T13:19:44.127Z,16.35
2023-01-13T13:22:45.950Z,12.02
2023-01-13T13:25:27.394Z,16.83
2023-01-13T13:28:18.639Z,12.40
2023-01-13T13:30:51.382Z,11.65
2023-01-13T13:33:29.285Z,12.77
2023-01-13T13:36:03.625Z,11.95
2023-01-13T13:38:59.517Z,12.68
2023-01-13T13:41:45.276Z,11.77
2023-01-13T13:44:31.774Z,12.55
2023-01-13T13:47:02.379Z,13.43
2023-01-13T13:49:39.151Z,9.93
2023-01-13T13:52:11.195Z,12.45
2023-01-13T13:54:39.304Z,11.60
2023-01-13T13:57:13.363Z,10.85
2023-01-13T13:59:41.249Z,11.88
2023-01-13T14:02:16.747Z,10.48
2023-01-13T14:04:44.725Z,11.07
2023-01-13T14:07:20.606Z,11.02
2023-01-13T14:09:49.896Z,11.93
2023-01-13T14:12:19.622Z,9.57
2023-01-13T14:14:48.411Z,10.30
2023-01-13T14:17:24.782Z,9.93
2023-01-13T14:19:54.090Z,11.20
2023-01-13T14:22:23.390Z,11.75
2023-01-13T14:24:55.504Z,10.70
2023-01-13T14:27:23.802Z,8.80
2023-01-13T14:29:53.636Z,10.88
2023-01-13T14:32:22.126Z,14.65
2023-01-13T14:34:50.077Z,15.40
2023-01-13T14:37:26.749Z,10.35
2023-01-13T14:39:54.637Z,9.75
2023-01-13T14:42:22.551Z,10.85
2023-01-13T14:44:51.522Z,11.52
2023-01-13T14:47:22.270Z,9.80
2023-01-13T14:49:58.730Z,13.13
2023-01-13T14:52:29.286Z,9.13
2023-01-13T14:55:20.787Z,9.52
2023-01-13T14:57:49.505Z,13.73
2023-01-13T15:00:24.687Z,10.00
2023-01-13T15:03:07.201Z,9.45
2023-01-13T15:05:47.319Z,9.55
2023-01-13T15:08:38.532Z,11.95
2023-01-13T15:11:08.161Z,9.25
2023-01-13T15:13:41.607Z,10.20
2023-01-13T15:16:16.666Z,8.75
2023-01-13T15:18:44.625Z,10.35
2023-01-13T15:21:12.544Z,8.10
2023-01-13T15:23:41.788Z,9.30
2023-01-13T15:26:21.527Z,8.50
2023-01-13T15:28:49.522Z,9.30
2023-01-13T15:31:17.514Z,6.97
2023-01-13T15:33:45.426Z,10.65
2023-01-13T15:36:23.497Z,9.27
2023-01-13T15:38:52.897Z,9.50
2023-01-13T15:41:41.758Z,10.98
2023-01-13T15:44:28.952Z,6.80
2023-01-13T15:46:56.889Z,8.70
2023-01-13T15:49:27.270Z,10.77
2023-01-13T15:51:55.360Z,7.65
2023-01-13T15:54:24.782Z,8.02
2023-01-13T15:56:52.751Z,7.63
2023-01-13T15:59:22.554Z,7.10
2023-01-13T16:01:50.529Z,9.55
2023-01-13T16:04:18.466Z,10.23
2023-01-13T16:06:47.383Z,7.50
2023-01-13T16:09:16.748Z,7.78
2023-01-13T16:11:46.262Z,8.57
2023-01-13T16:14:14.170Z,6.70
2023-01-13T16:16:42.144Z,7.40
2023-01-13T16:19:11.672Z,7.57
2023-01-13T16:21:40.381Z,6.88
2023-01-13T16:24:08.460Z,8.20
2023-01-13T16:26:38.877Z,8.15
2023-01-13T16:29:09.523Z,7.68
2023-01-13T16:31:37.566Z,9.00
2023-01-13T16:34:05.757Z,8.88
2023-01-13T16:36:35.729Z,6.47
2023-01-13T16:39:03.796Z,8.40
2023-01-13T16:41:31.676Z,6.13
2023-01-13T16:44:05.845Z,6.25
2023-01-13T16:46:35.215Z,8.52
2023-01-13T16:49:04.134Z,7.75
2023-01-13T16:51:32.066Z,7.00
2023-01-13T16:53:59.998Z,7.72
2023-01-13T16:56:28.941Z,7.97
2023-01-13T16:58:57.553Z,7.05
2023-01-13T17:01:26.841Z,8.32
2023-01-13T17:03:56.310Z,7.90
2023-01-13T17:06:25.879Z,6.18
2023-01-13T17:08:54.300Z,7.10
2023-01-13T17:11:22.477Z,7.93
2023-01-13T17:13:50.391Z,5.57
2023-01-13T17:16:20.050Z,6.63
2023-01-13T17:18:48.355Z,7.07
2023-01-13T17:21:17.706Z,6.78
2023-01-13T17:23:45.738Z,11.23
2023-01-13T17:26:25.419Z,12.60
2023-01-13T17:28:53.295Z,6.25
2023-01-13T17:31:21.289Z,9.00
2023-01-13T17:33:49.250Z,6.18
2023-01-13T17:36:18.475Z,8.43
2023-01-13T17:38:46.349Z,10.20
2023-01-13T17:41:14.251Z,5.53
2023-01-13T17:43:42.226Z,6.38
2023-01-13T17:46:10.455Z,8.65
2023-01-13T17:48:38.639Z,10.13
2023-01-13T17:51:09.658Z,10.32
2023-01-13T17:53:40.817Z,4.80
2023-01-13T17:56:09.539Z,12.30
2023-01-13T17:58:37.641Z,8.52
2023-01-13T18:01:09.447Z,6.50
2023-01-13T18:03:38.130Z,7.00
2023-01-13T18:06:06.538Z,9.95
2023-01-13T18:08:34.437Z,6.65
2023-01-13T18:11:03.695Z,6.63
2023-01-13T18:13:32.065Z,5.70
2023-01-13T18:16:05.331Z,6.75
2023-01-13T18:18:34.374Z,9.18
2023-01-13T18:21:20.167Z,7.22
2023-01-13T18:24:05.538Z,5.43
2023-01-13T18:26:52.198Z,8.50
2023-01-13T18:29:20.102Z,7.55
2023-01-13T18:31:47.970Z,9.40
2023-01-13T18:34:15.892Z,6.40
2023-01-13T18:36:43.773Z,5.10
2023-01-13T18:39:12.031Z,8.52
2023-01-13T18:41:58.762Z,5.57
2023-01-13T18:44:26.624Z,5.05
2023-01-13T18:46:54.583Z,8.30
2023-01-13T18:49:22.702Z,7.68
2023-01-13T18:51:50.846Z,6.70
2023-01-13T18:54:19.064Z,6.40
2023-01-13T18:56:49.402Z,6.03
2023-01-13T18:59:17.418Z,5.18
2023-01-13T19:01:45.430Z,5.40
2023-01-13T19:04:15.737Z,8.15
2023-01-13T19:06:47.980Z,6.25
2023-01-13T19:09:16.204Z,6.20
2023-01-13T19:11:46.573Z,10.30
2023-01-13T19:14:34.119Z,6.05
2023-01-13T19:17:02.822Z,7.40
2023-01-13T19:19:31.288Z,7.10
2023-01-13T19:21:59.232Z,6.25
2023-01-13T19:24:27.165Z,9.18
2023-01-13T19:26:55.193Z,4.50
2023-01-13T19:29:24.408Z,4.70
2023-01-13T19:31:52.314Z,6.32
2023-01-13T19:34:20.386Z,4.88
2023-01-13T19:36:48.299Z,7.25
2023-01-13T19:39:16.233Z,5.70
2023-01-13T19:42:01.865Z,5.18
2023-01-13T19:44:49.096Z,5.38
2023-01-13T19:47:17.178Z,5.13
2023-01-13T19:49:45.135Z,5.70
2023-01-13T19:52:13.232Z,5.60
2023-01-13T19:54:41.178Z,4.85
2023-01-13T19:57:09.218Z,5.72
2023-01-13T19:59:40.916Z,6.28
2023-01-13T20:02:14.120Z,5.28
2023-01-13T20:04:44.728Z,4.70
2023-01-13T20:07:14.306Z,9.52
2023-01-13T20:09:43.226Z,7.22
2023-01-13T20:12:12.444Z,8.52
2023-01-13T20:14:41.872Z,8.95
2023-01-13T20:17:09.908Z,6.70
2023-01-13T20:19:37.861Z,11.25
2023-01-13T20:22:08.183Z,7.20
2023-01-13T20:24:36.280Z,6.15
2023-01-13T20:27:04.637Z,8.77
2023-01-13T20:29:32.687Z,12.70
2023-01-13T20:32:02.218Z,6.40
2023-01-13T20:34:30.194Z,8.43
2023-01-13T20:36:58.132Z,5.20
2023-01-13T20:39:26.856Z,6.72
2023-01-13T20:42:12.490Z,6.30
2023-01-13T20:44:40.430Z,7.28
2023-01-13T20:47:09.766Z,5.97
2023-01-13T20:49:37.833Z,6.10
2023-01-13T20:52:09.600Z,7.35
2023-01-13T20:54:37.711Z,7.60
2023-01-13T20:57:05.793Z,11.98
2023-01-13T20:59:33.690Z,7.50
2023-01-13T21:02:01.656Z,5.15
2023-01-13T21:04:31.145Z,5.95
2023-01-13T21:06:59.021Z,9.98
2023-01-13T21:09:27.503Z,5.97
2023-01-13T21:12:13.097Z,5.28
2023-01-13T21:14:58.649Z,6.88
2023-01-13T21:17:44.351Z,6.63
2023-01-13T21:20:14.591Z,7.45
2023-01-13T21:22:45.462Z,10.05
2023-01-13T21:25:13.510Z,5.63
2023-01-13T21:27:41.436Z,6.35
2023-01-13T21:30:13.240Z,6.70
2023-01-13T21:32:41.213Z,6.82
2023-01-13T21:35:10.307Z,8.70
2023-01-13T21:37:39.549Z,5.95
2023-01-13T21:40:08.891Z,7.18
2023-01-13T21:42:54.430Z,9.20
2023-01-13T21:45:40.173Z,5.38
2023-01-13T21:48:08.239Z,5.90
2023-01-13T21:50:37.844Z,5.53
2023-01-13T21:53:08.159Z,5.18
2023-01-13T21:55:36.845Z,5.43
2023-01-13T21:58:12.108Z,5.25
2023-01-13T22:00:42.107Z,6.88
2023-01-13T22:03:11.288Z,6.78
2023-01-13T22:05:39.292Z,8.38
2023-01-13T22:08:08.532Z,5.68
2023-01-13T22:10:36.451Z,5.93
2023-01-13T22:13:27.467Z,7.90
2023-01-13T22:15:55.328Z,6.88
2023-01-13T22:18:23.196Z,5.60
2023-01-13T22:20:51.068Z,6.30
2023-01-13T22:23:21.406Z,8.07
2023-01-13T22:25:49.272Z,6.00
2023-01-13T22:28:23.941Z,4.97
2023-01-13T22:30:53.417Z,9.48
2023-01-13T22:33:21.814Z,6.35
2023-01-13T22:35:55.423Z,6.05
2023-01-13T22:38:24.829Z,6.80
2023-01-13T22:40:59.110Z,6.70
2023-01-13T22:43:28.002Z,6.13
2023-01-13T22:45:59.113Z,8.73
2023-01-13T22:48:27.115Z,6.72
2023-01-13T22:50:55.082Z,7.85
2023-01-13T22:53:24.446Z,8.80
2023-01-13T22:55:55.806Z,6.90
2023-01-13T22:58:23.724Z,6.90
2023-01-13T23:00:51.606Z,8.23
2023-01-13T23:03:19.537Z,6.43
2023-01-13T23:05:47.425Z,7.20
2023-01-13T23:08:15.380Z,7.75
2023-01-13T23:10:44.599Z,6.88
2023-01-13T23:13:12.564Z,7.38
2023-01-13T23:15:40.448Z,7.70
2023-01-13T23:18:08.477Z,6.63
2023-01-13T23:20:36.815Z,7.00
2023-01-13T23:23:04.839Z,7.13
2023-01-13T23:25:32.683Z,8.18
2023-01-13T23:28:01.975Z,8.95
2023-01-13T23:30:29.913Z,6.97
2023-01-13T23:32:57.771Z,8.23
2023-01-13T23:35:25.647Z,8.20
2023-01-13T23:37:53.512Z,11.70
2023-01-13T23:40:21.365Z,7.63
2023-01-13T23:42:49.223Z,9.50
2023-01-13T23:45:18.471Z,8.00
2023-01-13T23:47:46.305Z,8.48
2023-01-13T23:50:14.183Z,11.43
2023-01-13T23:52:42.057Z,8.48
2023-01-13T23:55:10.517Z,8.77
2023-01-13T23:57:40.732Z,7.70
